DLH488 EDDM-KSEA
Flight info
| Callsign | DLH488 |
|---|---|
| Flight time | N/A |
| Altitude | 38000 |
| Route | INPUD3E INPUD Y102 UPALA Z109 BAMKI DCT NOMKA DCT KEGAB DCT REXMI DCT KARLI DCT GUNPA/M081F380 DCT 68N010W 72N020W 75N040W/M081F400 75N060W DCT GELBO/N0462F400 DCT 74N080W 72N090W 68N100W 62N110W DCT YSM DCT 55N116W DCT LONRO DCT YDC DCT JAKSN GLASR3 |
| Aircraft | A333/H-SDE3GHIJ2J3J5M1RVWXY/LB2D1 |
Departure
| Time | 2026-05-08 00:30 |
|---|---|
| Airport | Munich Airport (EDDM) |
Arrival
| Time | N/A |
|---|---|
| Airport | Seattle–Tacoma International Airport (KSEA) |
| Time | Latitude | Longitude | Altitude | Speed | Heading |
|---|---|---|---|---|---|
| 2026-05-08 00:05 | 48.35098 | 11.79362 | 1489 ft | 0 kts | 263° |
| 2026-05-08 00:18 | 48.35098 | 11.79364 | 1486 ft | 2 kts | 263° |
| 2026-05-08 00:18 | 48.35101 | 11.79401 | 1478 ft | 4 kts | 263° |
| 2026-05-08 00:18 | 48.35104 | 11.79441 | 1478 ft | 3 kts | 263° |
| 2026-05-08 00:18 | 48.35106 | 11.79473 | 1478 ft | 4 kts | 277° |
| 2026-05-08 00:19 | 48.35098 | 11.79508 | 1474 ft | 4 kts | 322° |
| 2026-05-08 00:19 | 48.35076 | 11.79519 | 1474 ft | 4 kts | 353° |
| 2026-05-08 00:19 | 48.35060 | 11.79522 | 1474 ft | 1 kts | 353° |
| 2026-05-08 00:22 | 48.35084 | 11.79518 | 1474 ft | 6 kts | 353° |
| 2026-05-08 00:22 | 48.35164 | 11.79504 | 1482 ft | 17 kts | 353° |
| 2026-05-08 00:22 | 48.35311 | 11.79477 | 1478 ft | 23 kts | 353° |
| 2026-05-08 00:23 | 48.35466 | 11.79449 | 1482 ft | 22 kts | 353° |
| 2026-05-08 00:23 | 48.35614 | 11.79425 | 1474 ft | 21 kts | 353° |
| 2026-05-08 00:23 | 48.35757 | 11.79400 | 1489 ft | 20 kts | 354° |
| 2026-05-08 00:23 | 48.35874 | 11.79379 | 1477 ft | 13 kts | 349° |
| 2026-05-08 00:24 | 48.35961 | 11.79341 | 1485 ft | 13 kts | 351° |
| 2026-05-08 00:24 | 48.36049 | 11.79323 | 1479 ft | 13 kts | 348° |
| 2026-05-08 00:24 | 48.36086 | 11.79235 | 1481 ft | 11 kts | 266° |
| 2026-05-08 00:24 | 48.36074 | 11.79087 | 1477 ft | 16 kts | 261° |
| 2026-05-08 00:25 | 48.36059 | 11.78925 | 1480 ft | 15 kts | 264° |
| 2026-05-08 00:25 | 48.36050 | 11.78766 | 1478 ft | 17 kts | 265° |
| 2026-05-08 00:25 | 48.36037 | 11.78590 | 1486 ft | 19 kts | 263° |
| 2026-05-08 00:25 | 48.36018 | 11.78345 | 1475 ft | 26 kts | 263° |
| 2026-05-08 00:26 | 48.35998 | 11.78079 | 1482 ft | 25 kts | 264° |
| 2026-05-08 00:26 | 48.35980 | 11.77827 | 1477 ft | 24 kts | 263° |
| 2026-05-08 00:26 | 48.35960 | 11.77589 | 1477 ft | 22 kts | 264° |
| 2026-05-08 00:26 | 48.35943 | 11.77362 | 1481 ft | 21 kts | 263° |
| 2026-05-08 00:27 | 48.35926 | 11.77146 | 1481 ft | 20 kts | 264° |
| 2026-05-08 00:27 | 48.35914 | 11.76942 | 1489 ft | 19 kts | 278° |
| 2026-05-08 00:27 | 48.36000 | 11.76826 | 1476 ft | 17 kts | 347° |
| 2026-05-08 00:27 | 48.36112 | 11.76806 | 1477 ft | 16 kts | 354° |
| 2026-05-08 00:28 | 48.36223 | 11.76799 | 1486 ft | 16 kts | 359° |
| 2026-05-08 00:28 | 48.36291 | 11.76865 | 1479 ft | 8 kts | 83° |
| 2026-05-08 00:28 | 48.36292 | 11.76878 | 1479 ft | 0 kts | 84° |
| 2026-05-08 00:29 | 48.36303 | 11.77057 | 1486 ft | 45 kts | 84° |
| 2026-05-08 00:29 | 48.36358 | 11.77841 | 1481 ft | 104 kts | 83° |
| 2026-05-08 00:29 | 48.36464 | 11.79195 | 1479 ft | 156 kts | 83° |
| 2026-05-08 00:29 | 48.36601 | 11.81052 | 1562 ft | 196 kts | 84° |
| 2026-05-08 00:30 | 48.36700 | 11.83137 | 2165 ft | 204 kts | 85° |
| 2026-05-08 00:30 | 48.36749 | 11.84560 | 2715 ft | 204 kts | 83° |
| 2026-05-08 00:30 | 48.37223 | 11.86618 | 3251 ft | 219 kts | 45° |
| 2026-05-08 00:30 | 48.38565 | 11.87709 | 3623 ft | 228 kts | 3° |
| 2026-05-08 00:31 | 48.40159 | 11.87332 | 3997 ft | 238 kts | 339° |
| 2026-05-08 00:31 | 48.41727 | 11.86326 | 4375 ft | 252 kts | 324° |
| 2026-05-08 00:31 | 48.43040 | 11.84569 | 5012 ft | 254 kts | 309° |
| 2026-05-08 00:31 | 48.44193 | 11.82541 | 5802 ft | 255 kts | 307° |
| 2026-05-08 00:32 | 48.45336 | 11.80474 | 6531 ft | 258 kts | 307° |
| 2026-05-08 00:32 | 48.46487 | 11.78402 | 7191 ft | 263 kts | 308° |
| 2026-05-08 00:32 | 48.47672 | 11.76289 | 7915 ft | 265 kts | 308° |
| 2026-05-08 00:32 | 48.48873 | 11.74160 | 8660 ft | 267 kts | 307° |
| 2026-05-08 00:33 | 48.50084 | 11.72016 | 9386 ft | 270 kts | 308° |
| 2026-05-08 00:33 | 48.51311 | 11.69849 | 10054 ft | 273 kts | 308° |
| 2026-05-08 00:33 | 48.52552 | 11.67659 | 10681 ft | 276 kts | 308° |
| 2026-05-08 00:33 | 48.53806 | 11.65445 | 11323 ft | 279 kts | 308° |
| 2026-05-08 00:34 | 48.55072 | 11.63208 | 11962 ft | 281 kts | 308° |
| 2026-05-08 00:34 | 48.56377 | 11.60991 | 12581 ft | 285 kts | 314° |
| 2026-05-08 00:34 | 48.57981 | 11.59244 | 13109 ft | 295 kts | 330° |
| 2026-05-08 00:34 | 48.59913 | 11.57967 | 13382 ft | 312 kts | 336° |
| 2026-05-08 00:35 | 48.61990 | 11.56782 | 13640 ft | 327 kts | 336° |
| 2026-05-08 00:35 | 48.64168 | 11.55558 | 13881 ft | 342 kts | 336° |
| 2026-05-08 00:35 | 48.66438 | 11.54269 | 14169 ft | 353 kts | 336° |
| 2026-05-08 00:35 | 48.68767 | 11.52939 | 14635 ft | 359 kts | 336° |
| 2026-05-08 00:36 | 48.71119 | 11.51589 | 15159 ft | 363 kts | 336° |
| 2026-05-08 00:36 | 48.73497 | 11.50219 | 15712 ft | 366 kts | 336° |
| 2026-05-08 00:36 | 48.75888 | 11.48836 | 16306 ft | 368 kts | 336° |
| 2026-05-08 00:36 | 48.78269 | 11.47454 | 16835 ft | 372 kts | 336° |
| 2026-05-08 00:37 | 48.80698 | 11.46042 | 17376 ft | 376 kts | 336° |
| 2026-05-08 00:37 | 48.83158 | 11.44610 | 17939 ft | 380 kts | 335° |
| 2026-05-08 00:37 | 48.85640 | 11.43164 | 18510 ft | 382 kts | 336° |
| 2026-05-08 00:38 | 48.90611 | 11.40269 | 19630 ft | 385 kts | 336° |
| 2026-05-08 00:38 | 48.93119 | 11.38804 | 20105 ft | 388 kts | 336° |
| 2026-05-08 00:38 | 48.95645 | 11.37327 | 20575 ft | 390 kts | 336° |
| 2026-05-08 00:38 | 48.98191 | 11.35835 | 21072 ft | 391 kts | 336° |
| 2026-05-08 00:39 | 49.00736 | 11.34343 | 21533 ft | 393 kts | 336° |
| 2026-05-08 00:39 | 49.03300 | 11.32839 | 21941 ft | 396 kts | 336° |
| 2026-05-08 00:39 | 49.05879 | 11.31323 | 22364 ft | 398 kts | 336° |
| 2026-05-08 00:39 | 49.08476 | 11.29796 | 22794 ft | 401 kts | 336° |
| 2026-05-08 00:40 | 49.11086 | 11.28258 | 23212 ft | 403 kts | 336° |
| 2026-05-08 00:40 | 49.13712 | 11.26710 | 23618 ft | 406 kts | 336° |
| 2026-05-08 00:40 | 49.16354 | 11.25150 | 23954 ft | 408 kts | 336° |
| 2026-05-08 00:40 | 49.18983 | 11.23599 | 24294 ft | 410 kts | 337° |
| 2026-05-08 00:41 | 49.21757 | 11.22296 | 24643 ft | 414 kts | 344° |
| 2026-05-08 00:41 | 49.24547 | 11.21366 | 24977 ft | 417 kts | 346° |
| 2026-05-08 00:41 | 49.27400 | 11.20530 | 25324 ft | 419 kts | 347° |
| 2026-05-08 00:41 | 49.30288 | 11.19755 | 25671 ft | 421 kts | 348° |
| 2026-05-08 00:42 | 49.33176 | 11.19012 | 26002 ft | 422 kts | 348° |
| 2026-05-08 00:42 | 49.36083 | 11.18274 | 26380 ft | 423 kts | 348° |
| 2026-05-08 00:42 | 49.38986 | 11.17534 | 26760 ft | 423 kts | 348° |
| 2026-05-08 00:42 | 49.41905 | 11.16783 | 27076 ft | 426 kts | 348° |
| 2026-05-08 00:43 | 49.44836 | 11.16022 | 27388 ft | 428 kts | 349° |
| 2026-05-08 00:43 | 49.47782 | 11.15251 | 27686 ft | 430 kts | 349° |
| 2026-05-08 00:43 | 49.50708 | 11.14482 | 28010 ft | 432 kts | 349° |
| 2026-05-08 00:43 | 49.53674 | 11.13700 | 28350 ft | 433 kts | 349° |
| 2026-05-08 00:44 | 49.56661 | 11.12912 | 28636 ft | 436 kts | 349° |
| 2026-05-08 00:44 | 49.59660 | 11.12119 | 28925 ft | 438 kts | 349° |
| 2026-05-08 00:44 | 49.62667 | 11.11323 | 29259 ft | 439 kts | 349° |
| 2026-05-08 00:44 | 49.65695 | 11.10521 | 29572 ft | 441 kts | 349° |
| 2026-05-08 00:45 | 49.68723 | 11.09719 | 29844 ft | 443 kts | 351° |
| 2026-05-08 00:45 | 49.71783 | 11.08908 | 30108 ft | 446 kts | 351° |
| 2026-05-08 00:45 | 49.74847 | 11.08095 | 30341 ft | 448 kts | 351° |
| 2026-05-08 00:45 | 49.77883 | 11.07286 | 30565 ft | 450 kts | 351° |
| 2026-05-08 00:46 | 49.80983 | 11.06460 | 30776 ft | 452 kts | 351° |
| 2026-05-08 00:46 | 49.84089 | 11.05631 | 31038 ft | 454 kts | 351° |
| 2026-05-08 00:46 | 49.87224 | 11.04887 | 31262 ft | 456 kts | 355° |
| 2026-05-08 00:46 | 49.90400 | 11.04582 | 31434 ft | 459 kts | 358° |
| 2026-05-08 00:47 | 49.93586 | 11.04397 | 31864 ft | 456 kts | 358° |
| 2026-05-08 00:47 | 49.96758 | 11.04268 | 32153 ft | 457 kts | 358° |
| 2026-05-08 00:47 | 49.99949 | 11.04170 | 32254 ft | 461 kts | 359° |
| 2026-05-08 00:47 | 50.03122 | 11.04085 | 32533 ft | 461 kts | 358° |
| 2026-05-08 00:48 | 50.06372 | 11.04000 | 32768 ft | 463 kts | 358° |
| 2026-05-08 00:48 | 50.09561 | 11.03914 | 32937 ft | 465 kts | 358° |
| 2026-05-08 00:48 | 50.12802 | 11.03823 | 33232 ft | 465 kts | 358° |
| 2026-05-08 00:48 | 50.16040 | 11.03727 | 33497 ft | 466 kts | 358° |
| 2026-05-08 00:49 | 50.19291 | 11.03630 | 33749 ft | 467 kts | 357° |
| 2026-05-08 00:49 | 50.22545 | 11.03530 | 34015 ft | 467 kts | 358° |
| 2026-05-08 00:49 | 50.25807 | 11.03430 | 34220 ft | 468 kts | 358° |
| 2026-05-08 00:49 | 50.29074 | 11.03329 | 34406 ft | 469 kts | 357° |
| 2026-05-08 00:50 | 50.32335 | 11.03229 | 34590 ft | 469 kts | 358° |
| 2026-05-08 00:50 | 50.35608 | 11.03128 | 34803 ft | 470 kts | 358° |
| 2026-05-08 00:50 | 50.38876 | 11.03027 | 34966 ft | 471 kts | 358° |
| 2026-05-08 00:50 | 50.42160 | 11.02927 | 35155 ft | 471 kts | 358° |
| 2026-05-08 00:51 | 50.45396 | 11.02828 | 35349 ft | 471 kts | 358° |
| 2026-05-08 00:51 | 50.48681 | 11.02728 | 35531 ft | 472 kts | 358° |
| 2026-05-08 00:51 | 50.51970 | 11.02627 | 35703 ft | 472 kts | 358° |
| 2026-05-08 00:51 | 50.55261 | 11.02526 | 35887 ft | 473 kts | 358° |
| 2026-05-08 00:52 | 50.58550 | 11.02426 | 36053 ft | 474 kts | 358° |
| 2026-05-08 00:52 | 50.61855 | 11.02325 | 36227 ft | 474 kts | 358° |
| 2026-05-08 00:52 | 50.65159 | 11.02224 | 36394 ft | 475 kts | 358° |
| 2026-05-08 00:52 | 50.68463 | 11.02032 | 36574 ft | 474 kts | 353° |
| 2026-05-08 00:53 | 50.71677 | 11.01255 | 36711 ft | 473 kts | 345° |
| 2026-05-08 00:53 | 50.74818 | 10.99736 | 36844 ft | 472 kts | 338° |
| 2026-05-08 00:53 | 50.77867 | 10.97840 | 36999 ft | 472 kts | 336° |
| 2026-05-08 00:53 | 50.80893 | 10.95803 | 37148 ft | 472 kts | 334° |
| 2026-05-08 00:54 | 50.83895 | 10.93697 | 37310 ft | 472 kts | 334° |
| 2026-05-08 00:54 | 50.86893 | 10.91558 | 37435 ft | 472 kts | 334° |
| 2026-05-08 00:54 | 50.89888 | 10.89413 | 37584 ft | 473 kts | 334° |
| 2026-05-08 00:54 | 50.92895 | 10.87265 | 37764 ft | 472 kts | 334° |
| 2026-05-08 00:55 | 50.95858 | 10.85156 | 37957 ft | 472 kts | 334° |
| 2026-05-08 00:55 | 51.01864 | 10.80897 | 38015 ft | 468 kts | 334° |
| 2026-05-08 00:56 | 51.07788 | 10.76701 | 38026 ft | 464 kts | 334° |
| 2026-05-08 00:56 | 51.13682 | 10.72512 | 38023 ft | 464 kts | 334° |
| 2026-05-08 00:57 | 51.19552 | 10.68327 | 38027 ft | 465 kts | 334° |
| 2026-05-08 00:57 | 51.25464 | 10.64100 | 38026 ft | 465 kts | 334° |
| 2026-05-08 00:58 | 51.31361 | 10.59872 | 38025 ft | 464 kts | 334° |
| 2026-05-08 00:58 | 51.37262 | 10.55628 | 38032 ft | 465 kts | 334° |
| 2026-05-08 00:59 | 51.43159 | 10.51376 | 38033 ft | 464 kts | 334° |
| 2026-05-08 00:59 | 51.49025 | 10.47179 | 38035 ft | 464 kts | 334° |
| 2026-05-08 01:00 | 51.54949 | 10.42981 | 38044 ft | 464 kts | 334° |
| 2026-05-08 01:00 | 51.60855 | 10.38789 | 38038 ft | 464 kts | 334° |
| 2026-05-08 01:01 | 51.66774 | 10.34568 | 38043 ft | 465 kts | 334° |
| 2026-05-08 01:01 | 51.72655 | 10.30359 | 38045 ft | 465 kts | 334° |
| 2026-05-08 01:02 | 51.78561 | 10.26118 | 38054 ft | 465 kts | 334° |
| 2026-05-08 01:02 | 51.84466 | 10.21867 | 38059 ft | 464 kts | 334° |
| 2026-05-08 01:03 | 51.90375 | 10.17601 | 38052 ft | 465 kts | 334° |
| 2026-05-08 01:03 | 51.96283 | 10.13324 | 38058 ft | 465 kts | 334° |
| 2026-05-08 01:04 | 52.02186 | 10.09037 | 38058 ft | 465 kts | 334° |
| 2026-05-08 01:04 | 52.08065 | 10.04756 | 38063 ft | 465 kts | 334° |
| 2026-05-08 01:05 | 52.13967 | 10.00445 | 38061 ft | 465 kts | 334° |
| 2026-05-08 01:05 | 52.19865 | 9.96125 | 38064 ft | 465 kts | 334° |
| 2026-05-08 01:06 | 52.25764 | 9.91790 | 38069 ft | 465 kts | 334° |
| 2026-05-08 01:06 | 52.31669 | 9.87440 | 38069 ft | 464 kts | 334° |
| 2026-05-08 01:07 | 52.37554 | 9.83091 | 38070 ft | 464 kts | 334° |
| 2026-05-08 01:07 | 52.43405 | 9.78754 | 38070 ft | 464 kts | 334° |
| 2026-05-08 01:08 | 52.49292 | 9.74379 | 38073 ft | 464 kts | 334° |
| 2026-05-08 01:08 | 52.55170 | 9.69996 | 38072 ft | 464 kts | 334° |
| 2026-05-08 01:09 | 52.61055 | 9.65595 | 38069 ft | 464 kts | 334° |
| 2026-05-08 01:09 | 52.66927 | 9.61191 | 38070 ft | 464 kts | 334° |
| 2026-05-08 01:10 | 52.72765 | 9.56800 | 38070 ft | 463 kts | 334° |
| 2026-05-08 01:10 | 52.78638 | 9.52370 | 38067 ft | 463 kts | 334° |
| 2026-05-08 01:11 | 52.84505 | 9.47931 | 38069 ft | 463 kts | 334° |
| 2026-05-08 01:11 | 52.90375 | 9.43476 | 38067 ft | 464 kts | 334° |
| 2026-05-08 01:12 | 52.96237 | 9.39008 | 38064 ft | 464 kts | 334° |
| 2026-05-08 01:12 | 53.02056 | 9.34554 | 38064 ft | 463 kts | 334° |
| 2026-05-08 01:13 | 53.07914 | 9.30057 | 38064 ft | 464 kts | 334° |
| 2026-05-08 01:13 | 53.13771 | 9.25548 | 38061 ft | 463 kts | 334° |
| 2026-05-08 01:14 | 53.19627 | 9.21026 | 38063 ft | 463 kts | 333° |
| 2026-05-08 01:14 | 53.25481 | 9.16492 | 38061 ft | 463 kts | 333° |
| 2026-05-08 01:15 | 53.31328 | 9.11950 | 38061 ft | 463 kts | 334° |
| 2026-05-08 01:15 | 53.37138 | 9.07423 | 38062 ft | 463 kts | 334° |
| 2026-05-08 01:16 | 53.42982 | 9.02855 | 38062 ft | 463 kts | 334° |
| 2026-05-08 01:16 | 53.48828 | 8.98273 | 38062 ft | 463 kts | 333° |
| 2026-05-08 01:17 | 53.54669 | 8.93680 | 38062 ft | 463 kts | 333° |
| 2026-05-08 01:17 | 53.60481 | 8.89096 | 38061 ft | 463 kts | 334° |
| 2026-05-08 01:18 | 53.66318 | 8.84478 | 38068 ft | 463 kts | 333° |
| 2026-05-08 01:18 | 53.71168 | 8.80629 | 38044 ft | 462 kts | 333° |
| 2026-05-08 01:19 | 53.76971 | 8.76012 | 38066 ft | 461 kts | 333° |
| 2026-05-08 01:19 | 53.82784 | 8.71374 | 38067 ft | 461 kts | 333° |
| 2026-05-08 01:20 | 53.88548 | 8.66759 | 38072 ft | 461 kts | 333° |
| 2026-05-08 01:20 | 53.94381 | 8.62074 | 38088 ft | 461 kts | 333° |
| 2026-05-08 01:21 | 54.00132 | 8.57441 | 38083 ft | 460 kts | 333° |
| 2026-05-08 01:21 | 54.05915 | 8.52769 | 38072 ft | 460 kts | 333° |
| 2026-05-08 01:22 | 54.11704 | 8.48077 | 38090 ft | 460 kts | 333° |
| 2026-05-08 01:22 | 54.17478 | 8.43383 | 38107 ft | 459 kts | 333° |
| 2026-05-08 01:23 | 54.23248 | 8.38677 | 38094 ft | 459 kts | 333° |
| 2026-05-08 01:23 | 54.29012 | 8.33961 | 38093 ft | 459 kts | 333° |
| 2026-05-08 01:24 | 54.34770 | 8.29236 | 38093 ft | 459 kts | 333° |
| 2026-05-08 01:24 | 54.40490 | 8.24527 | 38112 ft | 458 kts | 333° |
| 2026-05-08 01:25 | 54.46242 | 8.19777 | 38115 ft | 458 kts | 333° |
| 2026-05-08 01:25 | 54.51993 | 8.15014 | 38106 ft | 458 kts | 333° |
| 2026-05-08 01:26 | 54.57727 | 8.10249 | 38103 ft | 457 kts | 333° |
| 2026-05-08 01:26 | 54.63423 | 8.05502 | 38108 ft | 457 kts | 333° |
| 2026-05-08 01:27 | 54.69137 | 8.00723 | 38106 ft | 456 kts | 333° |
| 2026-05-08 01:27 | 54.74858 | 7.95924 | 38129 ft | 456 kts | 333° |
| 2026-05-08 01:28 | 54.80568 | 7.91119 | 38112 ft | 455 kts | 333° |
| 2026-05-08 01:28 | 54.86260 | 7.86314 | 38119 ft | 455 kts | 333° |
| 2026-05-08 01:29 | 54.91961 | 7.81487 | 38117 ft | 455 kts | 333° |
| 2026-05-08 01:29 | 54.97622 | 7.76678 | 38119 ft | 455 kts | 333° |
| 2026-05-08 01:30 | 55.03151 | 7.71314 | 38125 ft | 454 kts | 328° |
| 2026-05-08 01:30 | 55.08562 | 7.65659 | 38120 ft | 453 kts | 328° |
| 2026-05-08 01:31 | 55.13925 | 7.59961 | 38112 ft | 453 kts | 327° |
| 2026-05-08 01:31 | 55.19311 | 7.54217 | 38115 ft | 453 kts | 327° |
| 2026-05-08 01:32 | 55.24708 | 7.48455 | 38121 ft | 453 kts | 327° |
| 2026-05-08 01:32 | 55.30055 | 7.42734 | 38126 ft | 453 kts | 327° |
| 2026-05-08 01:33 | 55.35429 | 7.36967 | 38120 ft | 451 kts | 327° |
| 2026-05-08 01:33 | 55.40794 | 7.31191 | 38123 ft | 451 kts | 327° |
| 2026-05-08 01:34 | 55.46145 | 7.25410 | 38119 ft | 451 kts | 327° |
| 2026-05-08 01:34 | 55.51462 | 7.19647 | 38123 ft | 451 kts | 327° |
| 2026-05-08 01:35 | 55.56819 | 7.13823 | 38123 ft | 451 kts | 327° |
| 2026-05-08 01:35 | 55.62174 | 7.07982 | 38118 ft | 451 kts | 327° |
| 2026-05-08 01:36 | 55.67474 | 7.02183 | 38127 ft | 450 kts | 327° |
| 2026-05-08 01:36 | 55.72815 | 6.96318 | 38119 ft | 450 kts | 327° |
| 2026-05-08 01:37 | 55.78118 | 6.90477 | 38125 ft | 450 kts | 327° |
| 2026-05-08 01:37 | 55.83451 | 6.84584 | 38124 ft | 450 kts | 327° |
| 2026-05-08 01:38 | 55.88771 | 6.78686 | 38125 ft | 450 kts | 327° |
| 2026-05-08 01:38 | 55.94090 | 6.72770 | 38122 ft | 451 kts | 326° |
| 2026-05-08 01:39 | 55.99410 | 6.66833 | 38126 ft | 451 kts | 326° |
| 2026-05-08 01:39 | 56.04704 | 6.60907 | 38124 ft | 451 kts | 326° |
| 2026-05-08 01:40 | 56.10020 | 6.54934 | 38123 ft | 451 kts | 326° |
| 2026-05-08 01:40 | 56.15338 | 6.48941 | 38127 ft | 451 kts | 326° |
| 2026-05-08 01:41 | 56.20643 | 6.42944 | 38127 ft | 450 kts | 326° |
| 2026-05-08 01:41 | 56.25905 | 6.36974 | 38126 ft | 450 kts | 326° |
| 2026-05-08 01:42 | 56.31204 | 6.30941 | 38124 ft | 450 kts | 326° |
| 2026-05-08 01:42 | 56.36504 | 6.24888 | 38124 ft | 451 kts | 325° |
| 2026-05-08 01:43 | 56.41804 | 6.18816 | 38121 ft | 451 kts | 325° |
| 2026-05-08 01:43 | 56.47061 | 6.12771 | 38123 ft | 450 kts | 325° |
| 2026-05-08 01:44 | 56.52345 | 6.06677 | 38125 ft | 450 kts | 325° |
| 2026-05-08 01:44 | 56.57628 | 6.00561 | 38125 ft | 450 kts | 325° |
| 2026-05-08 01:45 | 56.62905 | 5.94433 | 38125 ft | 450 kts | 325° |
| 2026-05-08 01:45 | 56.68146 | 5.88326 | 38123 ft | 450 kts | 325° |
| 2026-05-08 01:46 | 56.73417 | 5.82164 | 38115 ft | 449 kts | 325° |
| 2026-05-08 01:46 | 56.78671 | 5.76001 | 38136 ft | 448 kts | 324° |
| 2026-05-08 01:47 | 56.83914 | 5.69829 | 38117 ft | 448 kts | 324° |
| 2026-05-08 01:47 | 56.89160 | 5.63633 | 38134 ft | 448 kts | 324° |
| 2026-05-08 01:48 | 56.96997 | 5.54338 | 38134 ft | 448 kts | 324° |
| 2026-05-08 01:48 | 57.02227 | 5.48108 | 38125 ft | 447 kts | 324° |
| 2026-05-08 01:49 | 57.07437 | 5.41875 | 38120 ft | 446 kts | 324° |
| 2026-05-08 01:49 | 57.12636 | 5.35632 | 38122 ft | 446 kts | 324° |
| 2026-05-08 01:50 | 57.17832 | 5.29373 | 38120 ft | 446 kts | 324° |
| 2026-05-08 01:50 | 57.23036 | 5.23082 | 38120 ft | 446 kts | 324° |
| 2026-05-08 01:51 | 57.28207 | 5.16812 | 38137 ft | 446 kts | 324° |
| 2026-05-08 01:51 | 57.33390 | 5.10506 | 38122 ft | 445 kts | 324° |
| 2026-05-08 01:52 | 57.38563 | 5.04188 | 38122 ft | 445 kts | 323° |
| 2026-05-08 01:52 | 57.43732 | 4.97853 | 38121 ft | 445 kts | 323° |
| 2026-05-08 01:53 | 57.48867 | 4.91539 | 38123 ft | 445 kts | 323° |
| 2026-05-08 01:53 | 57.54033 | 4.85166 | 38120 ft | 445 kts | 323° |
| 2026-05-08 01:54 | 57.59191 | 4.78781 | 38127 ft | 444 kts | 323° |
| 2026-05-08 01:54 | 57.64326 | 4.72402 | 38121 ft | 443 kts | 323° |
| 2026-05-08 01:55 | 57.69459 | 4.66002 | 38124 ft | 443 kts | 323° |
| 2026-05-08 01:55 | 57.74554 | 4.59627 | 38119 ft | 443 kts | 323° |
| 2026-05-08 01:56 | 57.79676 | 4.53198 | 38119 ft | 443 kts | 323° |
| 2026-05-08 01:56 | 57.84796 | 4.46749 | 38138 ft | 443 kts | 322° |
| 2026-05-08 01:57 | 57.89913 | 4.40282 | 38124 ft | 442 kts | 322° |
| 2026-05-08 01:57 | 57.94984 | 4.33850 | 38121 ft | 441 kts | 322° |
| 2026-05-08 01:58 | 58.00080 | 4.27363 | 38131 ft | 441 kts | 322° |
| 2026-05-08 01:58 | 58.05171 | 4.20858 | 38115 ft | 443 kts | 322° |
| 2026-05-08 01:59 | 58.10275 | 4.14315 | 38116 ft | 443 kts | 322° |
| 2026-05-08 01:59 | 58.15348 | 4.07792 | 38122 ft | 443 kts | 321° |
| 2026-05-08 02:00 | 58.20448 | 4.01210 | 38114 ft | 441 kts | 321° |
| 2026-05-08 02:00 | 58.25522 | 3.94637 | 38116 ft | 441 kts | 321° |
| 2026-05-08 02:01 | 58.30588 | 3.88050 | 38115 ft | 441 kts | 321° |
| 2026-05-08 02:01 | 58.35622 | 3.81482 | 38113 ft | 441 kts | 321° |
| 2026-05-08 02:02 | 58.40692 | 3.74844 | 38112 ft | 441 kts | 321° |
| 2026-05-08 02:02 | 58.45758 | 3.68187 | 38112 ft | 442 kts | 321° |
| 2026-05-08 02:03 | 58.50824 | 3.61508 | 38113 ft | 442 kts | 321° |
| 2026-05-08 02:03 | 58.55889 | 3.54806 | 38113 ft | 442 kts | 321° |
| 2026-05-08 02:04 | 58.60949 | 3.48086 | 38107 ft | 442 kts | 321° |
| 2026-05-08 02:04 | 58.66005 | 3.41348 | 38101 ft | 442 kts | 320° |
| 2026-05-08 02:05 | 58.71054 | 3.34594 | 38099 ft | 442 kts | 320° |
| 2026-05-08 02:05 | 58.76072 | 3.27858 | 38097 ft | 442 kts | 320° |
| 2026-05-08 02:06 | 58.81118 | 3.21059 | 38098 ft | 442 kts | 320° |
| 2026-05-08 02:06 | 58.86156 | 3.14247 | 38093 ft | 442 kts | 320° |
| 2026-05-08 02:07 | 58.90349 | 3.08558 | 38094 ft | 444 kts | 320° |
| 2026-05-08 02:07 | 58.95410 | 3.01669 | 38111 ft | 444 kts | 320° |
| 2026-05-08 02:08 | 59.00466 | 2.94763 | 38106 ft | 444 kts | 320° |
| 2026-05-08 02:08 | 59.05473 | 2.87899 | 38094 ft | 442 kts | 320° |
| 2026-05-08 02:09 | 59.10505 | 2.80975 | 38088 ft | 442 kts | 320° |
| 2026-05-08 02:09 | 59.15500 | 2.74075 | 38086 ft | 442 kts | 320° |
| 2026-05-08 02:10 | 59.20520 | 2.67115 | 38086 ft | 442 kts | 320° |
| 2026-05-08 02:10 | 59.25534 | 2.60138 | 38086 ft | 442 kts | 320° |
| 2026-05-08 02:11 | 59.30538 | 2.53149 | 38102 ft | 443 kts | 319° |
| 2026-05-08 02:11 | 59.35551 | 2.46122 | 38083 ft | 443 kts | 319° |
| 2026-05-08 02:12 | 59.40534 | 2.39111 | 38080 ft | 443 kts | 319° |
| 2026-05-08 02:12 | 59.45549 | 2.32030 | 38072 ft | 443 kts | 319° |
| 2026-05-08 02:13 | 59.50554 | 2.24936 | 38072 ft | 443 kts | 319° |
| 2026-05-08 02:13 | 59.55524 | 2.17864 | 38072 ft | 443 kts | 319° |
| 2026-05-08 02:14 | 59.60522 | 2.10728 | 38078 ft | 443 kts | 319° |
| 2026-05-08 02:14 | 59.65510 | 2.03579 | 38061 ft | 443 kts | 319° |
| 2026-05-08 02:15 | 59.70511 | 1.96384 | 38062 ft | 443 kts | 319° |
| 2026-05-08 02:15 | 59.75501 | 1.89176 | 38062 ft | 444 kts | 319° |
| 2026-05-08 02:16 | 59.80455 | 1.81995 | 38056 ft | 444 kts | 319° |
| 2026-05-08 02:16 | 59.85437 | 1.74746 | 38054 ft | 444 kts | 319° |
| 2026-05-08 02:17 | 59.90421 | 1.67467 | 38055 ft | 444 kts | 319° |
| 2026-05-08 02:17 | 59.95407 | 1.60155 | 38051 ft | 444 kts | 318° |
| 2026-05-08 02:18 | 60.00340 | 1.52895 | 38043 ft | 444 kts | 318° |
| 2026-05-08 02:18 | 60.05307 | 1.45556 | 38043 ft | 444 kts | 318° |
| 2026-05-08 02:19 | 60.10278 | 1.38184 | 38043 ft | 444 kts | 318° |
| 2026-05-08 02:19 | 60.15238 | 1.30800 | 38038 ft | 444 kts | 318° |
| 2026-05-08 02:20 | 60.20201 | 1.23380 | 38031 ft | 444 kts | 318° |
| 2026-05-08 02:20 | 60.25133 | 1.15981 | 38031 ft | 444 kts | 318° |
| 2026-05-08 02:21 | 60.30094 | 1.08511 | 38031 ft | 444 kts | 317° |
| 2026-05-08 02:21 | 60.35044 | 1.01025 | 38021 ft | 444 kts | 317° |
| 2026-05-08 02:22 | 60.39969 | 0.93551 | 38020 ft | 444 kts | 317° |
| 2026-05-08 02:22 | 60.44920 | 0.86006 | 38020 ft | 444 kts | 317° |
| 2026-05-08 02:23 | 60.49828 | 0.78498 | 38010 ft | 444 kts | 317° |
| 2026-05-08 02:23 | 60.54759 | 0.70925 | 38009 ft | 444 kts | 317° |
| 2026-05-08 02:24 | 60.59681 | 0.63335 | 38012 ft | 445 kts | 317° |
| 2026-05-08 02:24 | 60.64620 | 0.55689 | 38008 ft | 446 kts | 317° |
| 2026-05-08 02:25 | 60.69561 | 0.48011 | 37995 ft | 446 kts | 317° |
| 2026-05-08 02:25 | 60.74494 | 0.40316 | 37996 ft | 445 kts | 317° |
| 2026-05-08 02:26 | 60.79392 | 0.32645 | 37995 ft | 445 kts | 317° |
| 2026-05-08 02:26 | 60.84301 | 0.24927 | 37985 ft | 445 kts | 317° |
| 2026-05-08 02:27 | 60.89227 | 0.17149 | 37985 ft | 445 kts | 317° |
| 2026-05-08 02:27 | 60.94101 | 0.09423 | 37986 ft | 445 kts | 317° |
| 2026-05-08 02:28 | 60.99031 | 0.01698 | 37988 ft | 447 kts | 321° |
| 2026-05-08 02:28 | 61.04469 | -0.04732 | 38010 ft | 452 kts | 326° |
| 2026-05-08 02:29 | 61.10076 | -0.10772 | 37975 ft | 456 kts | 327° |
| 2026-05-08 02:29 | 61.15708 | -0.16734 | 37975 ft | 456 kts | 327° |
| 2026-05-08 02:30 | 61.21363 | -0.22755 | 37973 ft | 456 kts | 327° |
| 2026-05-08 02:30 | 61.27005 | -0.28815 | 37975 ft | 456 kts | 327° |
| 2026-05-08 02:31 | 61.32642 | -0.34908 | 37973 ft | 456 kts | 327° |
| 2026-05-08 02:31 | 61.38237 | -0.40982 | 37975 ft | 456 kts | 327° |
| 2026-05-08 02:32 | 61.43867 | -0.47118 | 37977 ft | 457 kts | 327° |
| 2026-05-08 02:32 | 61.49504 | -0.53284 | 37976 ft | 457 kts | 327° |
| 2026-05-08 02:33 | 61.55134 | -0.59468 | 37963 ft | 457 kts | 327° |
| 2026-05-08 02:33 | 61.60772 | -0.65686 | 37963 ft | 457 kts | 327° |
| 2026-05-08 02:34 | 61.66359 | -0.71874 | 37963 ft | 457 kts | 327° |
| 2026-05-08 02:34 | 61.71980 | -0.78125 | 37965 ft | 456 kts | 327° |
| 2026-05-08 02:35 | 61.77597 | -0.84399 | 37969 ft | 456 kts | 326° |
| 2026-05-08 02:35 | 61.83208 | -0.90691 | 37955 ft | 456 kts | 326° |
| 2026-05-08 02:36 | 61.88820 | -0.97012 | 37956 ft | 457 kts | 326° |
| 2026-05-08 02:36 | 61.94435 | -1.03361 | 37966 ft | 456 kts | 326° |
| 2026-05-08 02:37 | 62.00000 | -1.09681 | 37959 ft | 456 kts | 326° |
| 2026-05-08 02:37 | 62.05598 | -1.16064 | 37950 ft | 456 kts | 326° |
| 2026-05-08 02:38 | 62.11189 | -1.22468 | 37945 ft | 456 kts | 326° |
| 2026-05-08 02:38 | 62.16770 | -1.28886 | 37960 ft | 456 kts | 326° |
| 2026-05-08 02:39 | 62.21433 | -1.34269 | 37942 ft | 456 kts | 326° |